createdAt,value
2022-10-20T00:00:06.067Z,103053.59
2022-10-20T00:02:33.658Z,103057.50
2022-10-20T00:05:01.174Z,103068.25
2022-10-20T00:07:29.742Z,103066.94
2022-10-20T00:09:56.989Z,103063.81
2022-10-20T00:12:24.322Z,103061.09
2022-10-20T00:14:51.574Z,103059.84
2022-10-20T00:17:18.934Z,103062.53
2022-10-20T00:19:47.533Z,103064.47
2022-10-20T00:22:14.886Z,103068.75
2022-10-20T00:24:43.942Z,103057.22
2022-10-20T00:27:11.525Z,103061.16
2022-10-20T00:29:38.953Z,103053.59
2022-10-20T00:32:06.237Z,103043.84
2022-10-20T00:34:33.633Z,103043.94
2022-10-20T00:37:00.849Z,103047.81
2022-10-20T00:39:28.209Z,103051.44
2022-10-20T00:41:57.009Z,103045.13
2022-10-20T00:44:51.644Z,103033.88
2022-10-20T00:47:22.248Z,103018.66
2022-10-20T00:49:50.941Z,103021.16
2022-10-20T00:52:21.983Z,103023.13
2022-10-20T00:54:49.742Z,103015.81
2022-10-20T00:57:19.094Z,103017.78
2022-10-20T00:59:46.372Z,103016.91
2022-10-20T01:02:14.099Z,103014.06
2022-10-20T01:04:42.064Z,103008.44
2022-10-20T01:07:09.322Z,103004.06
2022-10-20T01:09:36.716Z,103008.81
2022-10-20T01:12:13.680Z,103002.00
2022-10-20T01:14:52.649Z,103001.41
2022-10-20T01:17:29.384Z,102991.06
2022-10-20T01:20:31.961Z,102988.00
2022-10-20T01:23:21.381Z,102982.00
2022-10-20T01:26:15.037Z,102990.78
2022-10-20T01:28:51.646Z,102992.09
2022-10-20T01:31:28.255Z,102983.47
2022-10-20T01:34:03.303Z,102982.59
2022-10-20T01:36:37.336Z,102978.38
2022-10-20T01:39:09.241Z,102982.22
2022-10-20T01:41:42.466Z,102976.19
2022-10-20T01:44:14.993Z,102974.09
2022-10-20T01:46:43.402Z,102981.97
2022-10-20T01:49:12.760Z,102981.34
2022-10-20T01:54:23.126Z,102981.94
2022-10-20T01:56:59.143Z,102971.63
2022-10-20T01:59:47.391Z,102968.25
2022-10-20T02:05:04.731Z,102963.97
2022-10-20T02:07:33.274Z,102960.22
2022-10-20T02:10:06.632Z,102964.06
2022-10-20T02:12:39.000Z,102958.91
2022-10-20T02:15:10.989Z,102943.44
2022-10-20T02:18:18.342Z,102942.28
2022-10-20T02:20:50.367Z,102944.16
2022-10-20T02:23:18.108Z,102944.97
2022-10-20T02:25:48.734Z,102932.91
2022-10-20T02:28:17.315Z,102935.69
2022-10-20T02:30:47.256Z,102932.03
2022-10-20T02:33:16.050Z,102940.31
2022-10-20T02:35:50.139Z,102939.38
2022-10-20T02:38:17.447Z,102932.41
2022-10-20T02:40:44.817Z,102929.19
2022-10-20T02:43:12.100Z,102932.69
2022-10-20T02:45:41.133Z,102929.13
2022-10-20T02:48:09.931Z,102930.63
2022-10-20T02:50:39.197Z,102931.16
2022-10-20T02:53:06.607Z,102933.56
2022-10-20T02:55:33.882Z,102937.75
2022-10-20T02:58:01.208Z,102943.28
2022-10-20T03:00:28.521Z,102941.63
2022-10-20T03:02:55.690Z,102939.81
2022-10-20T03:05:24.657Z,102946.59
2022-10-20T03:07:51.870Z,102941.31
2022-10-20T03:10:19.155Z,102937.75
2022-10-20T03:12:46.540Z,102939.72
2022-10-20T03:15:13.821Z,102938.81
2022-10-20T03:17:41.094Z,102932.47
2022-10-20T03:20:09.351Z,102927.94
2022-10-20T03:22:37.916Z,102929.78
2022-10-20T03:25:05.801Z,102922.75
2022-10-20T03:27:33.210Z,102921.59
2022-10-20T03:30:00.609Z,102934.88
2022-10-20T03:32:27.820Z,102923.91
2022-10-20T03:34:55.095Z,102933.63
2022-10-20T03:37:22.423Z,102932.28
2022-10-20T03:39:51.076Z,102926.94
2022-10-20T03:42:18.308Z,102918.63
2022-10-20T03:44:45.523Z,102912.22
2022-10-20T03:47:13.408Z,102900.44
2022-10-20T03:49:40.928Z,102892.50
2022-10-20T03:52:08.239Z,102902.84
2022-10-20T03:54:36.101Z,102899.91
2022-10-20T03:57:06.999Z,102885.63
2022-10-20T03:59:35.218Z,102888.13
2022-10-20T04:02:03.106Z,102890.00
2022-10-20T04:04:30.502Z,102882.03
2022-10-20T04:06:57.796Z,102878.78
2022-10-20T04:09:25.088Z,102876.19
2022-10-20T04:11:52.374Z,102878.78
2022-10-20T04:14:21.026Z,102870.56
2022-10-20T04:16:48.351Z,102864.22
2022-10-20T04:19:15.607Z,102865.53
2022-10-20T04:21:42.927Z,102858.84
2022-10-20T04:24:10.149Z,102857.97
2022-10-20T04:26:37.406Z,102849.66
2022-10-20T04:29:04.756Z,102840.63
2022-10-20T04:31:33.387Z,102835.47
2022-10-20T04:34:00.654Z,102833.78
2022-10-20T04:36:27.930Z,102826.22
2022-10-20T04:38:55.355Z,102821.13
2022-10-20T04:41:22.567Z,102793.81
2022-10-20T04:43:50.828Z,102793.31
2022-10-20T04:46:18.982Z,102790.88
2022-10-20T04:48:47.566Z,102788.75
2022-10-20T04:51:16.226Z,102794.28
2022-10-20T04:53:43.987Z,102798.22
2022-10-20T04:56:13.238Z,102795.72
2022-10-20T04:58:40.682Z,102791.06
2022-10-20T05:01:09.710Z,102789.28
2022-10-20T05:03:37.339Z,102789.28
2022-10-20T05:06:13.293Z,102780.91
2022-10-20T05:08:41.594Z,102776.72
2022-10-20T05:11:09.832Z,102778.22
2022-10-20T05:13:37.865Z,102787.78
2022-10-20T05:16:06.331Z,102784.84
2022-10-20T05:18:34.687Z,102778.41
2022-10-20T05:21:09.005Z,102766.63
2022-10-20T05:23:39.339Z,102769.66
2022-10-20T05:26:08.967Z,102762.81
2022-10-20T05:28:36.162Z,102759.59
2022-10-20T05:31:04.510Z,102747.00
2022-10-20T05:33:31.927Z,102748.53
2022-10-20T05:35:59.199Z,102752.03
2022-10-20T05:38:26.494Z,102753.81
2022-10-20T05:40:55.175Z,102749.28
2022-10-20T05:43:22.434Z,102748.72
2022-10-20T05:45:53.941Z,102750.56
2022-10-20T05:48:21.168Z,102743.06
2022-10-20T05:50:48.487Z,102742.72
2022-10-20T05:53:15.796Z,102735.56
2022-10-20T05:55:43.171Z,102736.16
2022-10-20T05:58:11.769Z,102739.13
2022-10-20T06:00:39.007Z,102738.84
2022-10-20T06:03:06.453Z,102736.25
2022-10-20T06:05:34.080Z,102740.56
2022-10-20T06:08:01.383Z,102732.34
2022-10-20T06:10:28.601Z,102740.69
2022-10-20T06:12:55.851Z,102739.22
2022-10-20T06:15:24.515Z,102724.97
2022-10-20T06:17:51.779Z,102726.59
2022-10-20T06:20:19.076Z,102723.97
2022-10-20T06:22:46.555Z,102722.19
2022-10-20T06:25:13.923Z,102708.34
2022-10-20T06:27:41.306Z,102695.06
2022-10-20T06:30:09.557Z,102684.88
2022-10-20T06:32:38.536Z,102670.72
2022-10-20T06:35:06.749Z,102659.59
2022-10-20T06:37:34.168Z,102646.50
2022-10-20T06:40:01.382Z,102619.00
2022-10-20T06:42:28.670Z,102613.88
2022-10-20T06:44:56.126Z,102585.06
2022-10-20T06:47:23.503Z,102570.84
2022-10-20T06:49:52.134Z,102551.97
2022-10-20T06:52:19.419Z,102542.13
2022-10-20T06:54:46.746Z,102537.22
2022-10-20T06:57:14.070Z,102529.34
2022-10-20T06:59:41.286Z,102520.63
2022-10-20T07:02:10.766Z,102503.28
2022-10-20T07:04:38.304Z,102479.25
2022-10-20T07:07:06.855Z,102473.03
2022-10-20T07:09:34.113Z,102451.25
2022-10-20T07:12:02.071Z,102433.88
2022-10-20T07:14:32.360Z,102417.69
2022-10-20T07:16:59.857Z,102414.97
2022-10-20T07:19:27.361Z,102398.41
2022-10-20T07:21:57.423Z,102385.72
2022-10-20T07:24:26.158Z,102368.34
2022-10-20T07:26:53.479Z,102363.59
2022-10-20T07:29:20.903Z,102340.19
2022-10-20T07:31:49.449Z,102325.97
2022-10-20T07:34:27.262Z,102309.34
2022-10-20T07:36:56.639Z,102314.16
2022-10-20T07:39:24.595Z,102298.31
2022-10-20T07:41:53.327Z,102295.22
2022-10-20T07:44:20.885Z,102279.78
2022-10-20T07:46:48.127Z,102275.06
2022-10-20T07:52:02.663Z,102236.19
2022-10-20T07:54:30.366Z,102217.97
2022-10-20T07:56:58.989Z,102204.47
2022-10-20T07:59:26.292Z,102196.56
2022-10-20T08:01:56.336Z,102188.59
2022-10-20T08:04:26.064Z,102165.59
2022-10-20T08:06:53.337Z,102171.16
2022-10-20T08:09:20.610Z,102155.66
2022-10-20T08:11:51.353Z,102152.88
2022-10-20T08:14:23.522Z,102139.38
2022-10-20T08:16:56.767Z,102128.25
2022-10-20T08:19:54.730Z,102103.59
2022-10-20T08:22:12.086Z,102096.00
2022-10-20T08:24:39.407Z,102095.22
2022-10-20T08:27:06.687Z,102082.06
2022-10-20T08:29:36.155Z,102068.13
2022-10-20T08:32:04.243Z,102060.53
2022-10-20T08:34:31.560Z,102048.13
2022-10-20T08:36:58.974Z,102027.75
2022-10-20T08:39:26.313Z,102009.19
2022-10-20T08:42:07.401Z,102017.50
2022-10-20T08:44:39.921Z,101997.91
2022-10-20T08:47:20.202Z,101981.63
2022-10-20T08:49:47.490Z,101963.28
2022-10-20T08:52:15.169Z,101959.16
2022-10-20T08:54:42.676Z,101963.03
2022-10-20T08:57:21.332Z,101948.16
2022-10-20T08:59:52.286Z,101937.16
2022-10-20T09:02:20.471Z,101910.41
2022-10-20T09:04:51.155Z,101903.78
2022-10-20T09:07:24.362Z,101903.63
2022-10-20T09:09:52.562Z,101897.09
2022-10-20T09:12:21.505Z,101884.28
2022-10-20T09:14:50.352Z,101872.13
2022-10-20T09:17:19.090Z,101858.97
2022-10-20T09:19:52.024Z,101843.75
2022-10-20T09:22:20.547Z,101838.72
2022-10-20T09:24:49.063Z,101827.75
2022-10-20T09:27:21.133Z,101817.91
2022-10-20T09:29:50.211Z,101808.97
2022-10-20T09:35:26.153Z,101795.88
2022-10-20T09:38:05.035Z,101789.47
2022-10-20T09:40:32.406Z,101783.72
2022-10-20T09:43:02.797Z,101772.84
2022-10-20T09:45:33.756Z,101764.97
2022-10-20T09:48:05.294Z,101766.63
2022-10-20T09:50:36.338Z,101772.53
2022-10-20T09:53:06.368Z,101747.59
2022-10-20T09:55:36.504Z,101725.38
2022-10-20T09:58:05.871Z,101731.59
2022-10-20T10:00:37.922Z,101726.22
2022-10-20T10:03:13.855Z,101715.28
2022-10-20T10:05:44.159Z,101707.28
2022-10-20T10:08:14.871Z,101712.47
2022-10-20T10:10:44.572Z,101723.66
2022-10-20T10:13:26.178Z,101706.91
2022-10-20T10:16:07.312Z,101703.00
2022-10-20T10:18:36.046Z,101675.81
2022-10-20T10:21:06.253Z,101666.53
2022-10-20T10:23:35.579Z,101661.94
2022-10-20T10:26:05.759Z,101666.69
2022-10-20T10:28:38.452Z,101653.66
2022-10-20T10:31:23.746Z,101656.72
2022-10-20T10:33:54.964Z,101646.47
2022-10-20T10:36:30.730Z,101643.41
2022-10-20T10:38:58.889Z,101645.13
2022-10-20T10:41:49.653Z,101616.97
2022-10-20T10:44:24.647Z,101622.00
2022-10-20T10:47:02.796Z,101617.53
2022-10-20T10:49:45.883Z,101610.31
2022-10-20T10:52:28.632Z,101605.81
2022-10-20T10:55:11.916Z,101602.88
2022-10-20T10:57:55.193Z,101592.56
2022-10-20T11:00:32.974Z,101579.53
2022-10-20T11:03:14.513Z,101573.66
2022-10-20T11:06:12.375Z,101546.78
2022-10-20T11:09:03.514Z,101545.25
2022-10-20T11:11:43.275Z,101558.13
2022-10-20T11:14:22.820Z,101567.66
2022-10-20T11:17:00.333Z,101562.06
2022-10-20T11:19:56.628Z,101543.22
2022-10-20T11:22:37.477Z,101530.31
2022-10-20T11:25:13.862Z,101522.50
2022-10-20T11:27:41.209Z,101510.53
2022-10-20T11:30:13.989Z,101503.31
2022-10-20T11:32:48.938Z,101521.00
2022-10-20T11:35:28.136Z,101519.25
2022-10-20T11:38:01.653Z,101506.44
2022-10-20T11:40:31.955Z,101493.84
2022-10-20T11:43:10.340Z,101492.16
2022-10-20T11:45:45.199Z,101496.06
2022-10-20T11:48:20.554Z,101509.22
2022-10-20T11:51:12.045Z,101482.84
2022-10-20T11:54:02.916Z,101480.06
2022-10-20T11:56:52.665Z,101474.53
2022-10-20T11:59:39.989Z,101474.84
2022-10-20T12:02:39.639Z,101476.41
2022-10-20T12:05:27.163Z,101485.16
2022-10-20T12:08:31.037Z,101478.22
2022-10-20T12:11:05.957Z,101473.06
2022-10-20T12:13:45.150Z,101463.53
2022-10-20T12:16:12.666Z,101460.13
2022-10-20T12:21:56.135Z,101450.16
2022-10-20T12:24:35.229Z,101456.25
2022-10-20T12:27:15.421Z,101448.56
2022-10-20T12:30:00.367Z,101445.47
2022-10-20T12:32:52.811Z,101434.38
2022-10-20T12:35:46.101Z,101432.16
2022-10-20T12:38:17.886Z,101430.13
2022-10-20T12:40:51.638Z,101444.06
2022-10-20T12:43:26.519Z,101451.84
2022-10-20T12:46:04.831Z,101451.09
2022-10-20T12:48:35.420Z,101442.22
2022-10-20T12:51:08.758Z,101432.59
2022-10-20T12:53:36.173Z,101430.69
2022-10-20T12:56:07.984Z,101438.53
2022-10-20T12:58:36.899Z,101425.88
2022-10-20T13:01:10.583Z,101427.22
2022-10-20T13:03:41.948Z,101445.81
2022-10-20T13:06:43.019Z,101438.47
2022-10-20T13:09:24.217Z,101451.63
2022-10-20T13:12:03.985Z,101446.69
2022-10-20T13:14:56.704Z,101455.28
2022-10-20T13:17:35.623Z,101448.00
2022-10-20T13:20:17.453Z,101453.72
2022-10-20T13:22:47.012Z,101448.53
2022-10-20T13:25:32.960Z,101450.03
2022-10-20T13:28:07.223Z,101464.94
2022-10-20T13:30:36.514Z,101458.66
2022-10-20T13:33:33.682Z,101461.94
2022-10-20T13:36:11.643Z,101462.19
2022-10-20T13:38:45.572Z,101458.91
2022-10-20T13:41:23.232Z,101461.09
2022-10-20T13:44:03.008Z,101467.69
2022-10-20T13:46:44.463Z,101465.50
2022-10-20T13:49:30.271Z,101461.38
2022-10-20T13:52:03.396Z,101461.47
2022-10-20T13:54:33.651Z,101448.59
2022-10-20T13:57:01.958Z,101451.59
2022-10-20T13:59:31.565Z,101446.69
2022-10-20T14:02:02.700Z,101441.28
2022-10-20T14:04:32.187Z,101439.78
2022-10-20T14:07:03.850Z,101442.19
2022-10-20T14:09:31.398Z,101447.56
2022-10-20T14:12:02.309Z,101449.03
2022-10-20T14:14:31.930Z,101449.56
2022-10-20T14:17:01.788Z,101465.06
2022-10-20T14:19:30.297Z,101465.50
2022-10-20T14:22:09.739Z,101458.44
2022-10-20T14:24:42.795Z,101461.25
2022-10-20T14:27:21.883Z,101462.59
2022-10-20T14:29:52.211Z,101469.13
2022-10-20T14:32:22.698Z,101470.34
2022-10-20T14:34:56.267Z,101479.41
2022-10-20T14:37:29.985Z,101467.09
2022-10-20T14:40:00.091Z,101462.72
2022-10-20T14:42:30.944Z,101476.75
2022-10-20T14:45:02.437Z,101465.41
2022-10-20T14:47:34.654Z,101465.09
2022-10-20T14:50:02.168Z,101467.19
2022-10-20T14:52:31.969Z,101475.84
2022-10-20T14:54:59.260Z,101465.19
2022-10-20T14:57:38.634Z,101473.94
2022-10-20T15:00:41.134Z,101471.66
2022-10-20T15:03:09.718Z,101475.94
2022-10-20T15:05:40.335Z,101479.28
2022-10-20T15:08:17.586Z,101488.13
2022-10-20T15:10:45.129Z,101487.34
2022-10-20T15:13:27.474Z,101501.00
2022-10-20T15:15:57.956Z,101521.19
2022-10-20T15:18:25.679Z,101555.25
2022-10-20T15:20:53.576Z,101583.59
2022-10-20T15:23:22.484Z,101618.22
2022-10-20T15:25:52.384Z,101649.59
2022-10-20T15:28:28.895Z,101660.88
2022-10-20T15:30:58.838Z,101691.00
2022-10-20T15:33:26.423Z,101716.25
2022-10-20T15:35:53.960Z,101737.56
2022-10-20T15:38:21.373Z,101755.25
2022-10-20T15:40:48.810Z,101787.75
2022-10-20T15:43:18.272Z,101807.75
2022-10-20T15:45:48.919Z,101801.38
2022-10-20T15:48:17.488Z,101811.13
2022-10-20T15:50:44.810Z,101818.34
2022-10-20T15:53:12.842Z,101822.38
2022-10-20T15:55:42.596Z,101822.38
2022-10-20T15:58:10.375Z,101815.31
2022-10-20T16:00:37.819Z,101812.16
2022-10-20T16:03:06.017Z,101812.66
2022-10-20T16:05:34.677Z,101825.06
2022-10-20T16:08:02.011Z,101839.47
2022-10-20T16:10:29.432Z,101847.78
2022-10-20T16:12:56.889Z,101849.91
2022-10-20T16:15:28.764Z,101852.63
2022-10-20T16:17:58.913Z,101851.91
2022-10-20T16:20:26.245Z,101850.41
2022-10-20T16:22:54.873Z,101865.16
2022-10-20T16:25:22.071Z,101882.75
2022-10-20T16:27:49.338Z,101878.81
2022-10-20T16:30:16.537Z,101882.03
2022-10-20T16:32:43.754Z,101882.97
2022-10-20T16:35:11.029Z,101890.06
2022-10-20T16:37:38.657Z,101898.91
2022-10-20T16:40:08.722Z,101927.22
2022-10-20T16:42:35.942Z,101928.06
2022-10-20T16:45:03.356Z,101931.59
2022-10-20T16:47:30.619Z,101938.88
2022-10-20T16:49:57.829Z,101959.19
2022-10-20T16:52:25.044Z,101950.06
2022-10-20T16:54:52.297Z,101958.44
2022-10-20T16:57:21.002Z,101949.72
2022-10-20T16:59:48.198Z,101938.13
2022-10-20T17:02:16.307Z,101962.16
2022-10-20T17:04:43.800Z,101960.22
2022-10-20T17:07:11.078Z,101970.19
2022-10-20T17:09:38.335Z,101979.38
2022-10-20T17:12:05.936Z,101975.41
2022-10-20T17:14:34.698Z,101966.22
2022-10-20T17:17:01.979Z,101975.03
2022-10-20T17:19:29.280Z,101995.81
2022-10-20T17:21:56.515Z,101999.75
2022-10-20T17:24:23.798Z,102014.97
2022-10-20T17:26:51.115Z,102011.75
2022-10-20T17:29:22.282Z,102017.34
2022-10-20T17:31:53.789Z,102026.88
2022-10-20T17:34:21.080Z,102028.47
2022-10-20T17:36:48.356Z,102029.66
2022-10-20T17:39:15.764Z,102027.66
2022-10-20T17:41:43.030Z,102026.03
2022-10-20T17:44:10.602Z,102010.09
2022-10-20T17:46:37.865Z,102013.66
2022-10-20T17:49:06.386Z,102014.88
2022-10-20T17:51:34.773Z,102003.75
2022-10-20T17:54:02.963Z,102000.53
2022-10-20T17:56:31.893Z,102004.53
2022-10-20T17:59:00.302Z,102016.50
2022-10-20T18:01:29.700Z,102012.50
2022-10-20T18:03:58.594Z,102004.53
2022-10-20T18:06:33.572Z,102002.16
2022-10-20T18:09:05.064Z,102021.34
2022-10-20T18:11:34.307Z,102051.66
2022-10-20T18:14:02.612Z,102048.06
2022-10-20T18:16:31.916Z,102043.63
2022-10-20T18:19:00.297Z,102044.44
2022-10-20T18:21:30.236Z,102063.59
2022-10-20T18:23:58.938Z,102061.59
2022-10-20T18:26:26.189Z,102060.44
2022-10-20T18:28:53.633Z,102065.19
2022-10-20T18:31:23.029Z,102066.81
2022-10-20T18:33:52.057Z,102076.00
2022-10-20T18:36:19.807Z,102090.75
2022-10-20T18:38:48.600Z,102091.53
2022-10-20T18:41:17.816Z,102110.69
2022-10-20T18:43:45.438Z,102110.66
2022-10-20T18:46:14.431Z,102108.28
2022-10-20T18:48:42.532Z,102103.91
2022-10-20T18:51:11.362Z,102106.72
2022-10-20T18:56:13.953Z,102093.13
2022-10-20T18:58:43.079Z,102085.09
2022-10-20T19:01:12.072Z,102097.91
2022-10-20T19:03:40.525Z,102096.25
2022-10-20T19:06:09.665Z,102094.69
2022-10-20T19:08:38.260Z,102104.63
2022-10-20T19:11:09.564Z,102113.03
2022-10-20T19:13:38.699Z,102114.22
2022-10-20T19:16:08.460Z,102109.06
2022-10-20T19:18:36.371Z,102107.44
2022-10-20T19:21:05.348Z,102123.47
2022-10-20T19:23:34.631Z,102100.75
2022-10-20T19:26:07.369Z,102109.97
2022-10-20T19:28:37.231Z,102105.19
2022-10-20T19:31:20.914Z,102103.63
2022-10-20T19:33:51.541Z,102100.47
2022-10-20T19:36:19.238Z,102102.50
2022-10-20T19:38:47.013Z,102105.69
2022-10-20T19:41:14.407Z,102108.91
2022-10-20T19:43:41.630Z,102102.97
2022-10-20T19:46:13.150Z,102106.94
2022-10-20T19:48:41.216Z,102108.59
2022-10-20T19:51:08.416Z,102115.78
2022-10-20T19:53:36.431Z,102124.16
2022-10-20T19:56:05.630Z,102124.19
2022-10-20T19:58:35.068Z,102117.06
2022-10-20T20:01:03.450Z,102112.63
2022-10-20T20:03:32.235Z,102124.59
2022-10-20T20:06:00.413Z,102133.81
2022-10-20T20:08:28.097Z,102130.63
2022-10-20T20:10:56.840Z,102130.25
2022-10-20T20:13:25.245Z,102135.41
2022-10-20T20:15:52.580Z,102130.63
2022-10-20T20:18:19.980Z,102141.00
2022-10-20T20:20:49.156Z,102140.63
2022-10-20T20:23:20.071Z,102145.03
2022-10-20T20:25:53.040Z,102155.41
2022-10-20T20:28:20.311Z,102153.81
2022-10-20T20:30:58.649Z,102153.47
2022-10-20T20:33:25.889Z,102160.63
2022-10-20T20:35:56.746Z,102165.00
2022-10-20T20:38:24.405Z,102167.03
2022-10-20T20:40:51.757Z,102166.66
2022-10-20T20:43:19.048Z,102172.25
2022-10-20T20:45:46.432Z,102179.00
2022-10-20T20:48:13.691Z,102179.03
2022-10-20T20:50:40.927Z,102183.81
2022-10-20T20:53:09.485Z,102179.41
2022-10-20T20:55:36.733Z,102187.81
2022-10-20T20:58:03.931Z,102191.81
2022-10-20T21:00:31.151Z,102203.78
2022-10-20T21:02:58.477Z,102195.84
2022-10-20T21:05:25.772Z,102205.38
2022-10-20T21:07:52.939Z,102212.56
2022-10-20T21:10:21.546Z,102225.31
2022-10-20T21:12:48.738Z,102244.41
2022-10-20T21:15:16.242Z,102254.00
2022-10-20T21:17:43.491Z,102269.56
2022-10-20T21:20:10.729Z,102282.69
2022-10-20T21:22:38.149Z,102278.34
2022-10-20T21:25:06.176Z,102282.75
2022-10-20T21:27:34.779Z,102294.69
2022-10-20T21:30:02.020Z,102317.81
2022-10-20T21:32:29.289Z,102328.16
2022-10-20T21:34:56.611Z,102346.53
2022-10-20T21:37:24.360Z,102364.84
2022-10-20T21:39:51.645Z,102393.56
2022-10-20T21:42:19.058Z,102415.88
2022-10-20T21:44:49.225Z,102453.72
2022-10-20T21:47:16.413Z,102480.44
2022-10-20T21:49:43.837Z,102513.53
2022-10-20T21:52:11.026Z,102537.81
2022-10-20T21:54:38.521Z,102560.94
2022-10-20T21:57:05.703Z,102585.63
2022-10-20T21:59:32.980Z,102624.28
2022-10-20T22:02:01.841Z,102648.22
2022-10-20T22:04:30.142Z,102671.72
2022-10-20T22:06:58.169Z,102687.28
2022-10-20T22:09:25.574Z,102713.56
2022-10-20T22:11:55.051Z,102731.50
2022-10-20T22:14:22.694Z,102742.66
2022-10-20T22:16:49.960Z,102758.59
2022-10-20T22:19:20.546Z,102783.72
2022-10-20T22:21:49.901Z,102798.47
2022-10-20T22:24:20.118Z,102823.59
2022-10-20T22:26:48.344Z,102831.97
2022-10-20T22:29:15.547Z,102839.53
2022-10-20T22:31:42.855Z,102849.50
2022-10-20T22:34:10.220Z,102858.25
2022-10-20T22:36:38.961Z,102866.22
2022-10-20T22:39:08.703Z,102863.84
2022-10-20T22:41:36.289Z,102873.41
2022-10-20T22:44:03.896Z,102888.94
2022-10-20T22:46:31.353Z,102901.34
2022-10-20T22:51:31.040Z,102910.13
2022-10-20T22:53:59.662Z,102912.50
2022-10-20T22:56:26.821Z,102905.69
2022-10-20T22:58:54.181Z,102915.69
2022-10-20T23:01:23.266Z,102911.66
2022-10-20T23:03:50.971Z,102925.22
2022-10-20T23:06:20.502Z,102941.19
2022-10-20T23:08:50.034Z,102954.78
2022-10-20T23:11:19.840Z,102965.94
2022-10-20T23:13:47.466Z,102959.59
2022-10-20T23:16:15.255Z,102964.38
2022-10-20T23:18:42.803Z,102964.78
2022-10-20T23:21:11.791Z,102980.34
2022-10-20T23:23:38.997Z,102981.16
2022-10-20T23:26:07.343Z,102995.13
2022-10-20T23:28:37.060Z,102989.16
2022-10-20T23:31:06.197Z,102995.16
2022-10-20T23:33:33.474Z,102985.16
2022-10-20T23:36:00.709Z,103006.75
2022-10-20T23:38:28.100Z,102995.59
2022-10-20T23:40:55.444Z,102980.41
2022-10-20T23:43:22.976Z,103007.91
2022-10-20T23:45:51.586Z,102998.34
2022-10-20T23:48:18.867Z,103004.72
2022-10-20T23:50:46.296Z,102990.75
2022-10-20T23:53:13.520Z,102995.59
2022-10-20T23:55:40.862Z,102989.19
2022-10-20T23:58:08.158Z,102998.38
